ΕΜΥ, Εθνική Μετεωρολογική Υπηρεσία - Δελτία Καιρού, Προγνώσεις

ΑΕΡΟΝΑΥΤΙΛΙΑ

GREEK AIRPORTS CODES

TAF LGTL 181100Z 1812/1821 18006KT 9999 SCT020=

EUROPEAN AIRPORTS CODES

LFPO 181100Z 03008KT 350V070 9999 BKN030 09/03 Q1022 NOSIG=